This is the latest recevied weather packets stored in our database for station/object KI5GCD-13. If no packets are shown the sender has not sent any weather packets the latest 10 day(s).
| Time | Temp. | Humidity | Pressure | Rain* | Wind** | Luminosity | Snow |
|---|---|---|---|---|---|---|---|
| 1777506287 | 16.67° C | 68% | 1012.7 hPa | 0 mm | 0.45 m/s, 170° | - | - |
| 1777505987 | 16.67° C | 66% | 1012.7 hPa | 0 mm | 0.89 m/s, 81° | - | - |
| 1777505687 | 16.67° C | 66% | 1012.8 hPa | 0 mm | 0.45 m/s, 256° | - | - |
| 1777505387 | 16.67° C | 66% | 1012.4 hPa | 0 mm | 0.89 m/s, 7° | - | - |
| 1777505088 | 16.67° C | 64% | 1012.6 hPa | 0 mm | 2.24 m/s, 24° | - | - |
| 1777504788 | 16.67° C | 65% | 1012.6 hPa | 0 mm | 0.89 m/s, 358° | - | - |
| 1777504487 | 16.67° C | 67% | 1012.6 hPa | 0 mm | 1.34 m/s, 74° | - | - |
| 1777504187 | 16.67° C | 64% | 1012.2 hPa | 0 mm | 2.68 m/s, 27° | - | - |
| 1777503887 | 16.67° C | 66% | 1012.3 hPa | 0 mm | 0.89 m/s, 29° | - | - |
| 1777503587 | 17.22° C | 64% | 1012.1 hPa | 0 mm | 1.79 m/s, 49° | - | - |
| 1777503287 | 17.22° C | 65% | 1012.4 hPa | 0 mm | 1.34 m/s, 359° | - | - |
| 1777502988 | 17.22° C | 64% | 1012.6 hPa | 0 mm | 1.79 m/s, 329° | - | - |
| 1777502687 | 17.22° C | 66% | 1012.2 hPa | 0 mm | 0.89 m/s, 92° | - | - |
| 1777502387 | 17.22° C | 64% | 1012 hPa | 0 mm | 0.45 m/s, 339° | - | - |
| 1777502087 | 17.22° C | 64% | 1012 hPa | 0 mm | 0.89 m/s, 217° | - | - |
| 1777501788 | 17.22° C | 64% | 1012 hPa | 0 mm | 0.89 m/s, 354° | - | - |
| 1777501487 | 17.22° C | 64% | 1012 hPa | 0 mm | 1.79 m/s, 61° | - | - |
| 1777501188 | 17.22° C | 62% | 1012 hPa | 0 mm | 1.79 m/s, 64° | - | - |
| 1777500888 | 17.22° C | 62% | 1012.1 hPa | 0 mm | 1.34 m/s, 94° | - | - |
| 1777500587 | 17.22° C | 63% | 1012.1 hPa | 0 mm | 1.34 m/s, 58° | - | - |
| 1777500287 | 17.22° C | 62% | 1012.1 hPa | 0 mm | 3.58 m/s, 67° | - | - |
| 1777499988 | 17.22° C | 63% | 1012.1 hPa | 0 mm | 0.45 m/s, 263° | - | - |
| 1777499687 | 17.22° C | 63% | 1012.2 hPa | 0 mm | 2.68 m/s, 80° | - | - |
| 1777499387 | 17.22° C | 65% | 1012.1 hPa | 0 mm | 0.89 m/s, 280° | - | - |
| 1777499087 | 17.22° C | 65% | 1012.3 hPa | 0 mm | 0.45 m/s, 299° | - | - |
* Rain latest hour (hover to see other rain measurements)
** Current wind speed in m/s (hover to see current wind gust speed)